Time;durP1;ratioP1;P1;durP2;ratioP2;P2;SDS_P1;SDS_P2;PMS_P1;PMS_P2;Temp;Humidity;BMP_temperature;BMP_pressure;BME280_temperature;BME280_humidity;BME280_pressure;Samples;Min_cycle;Max_cycle;Signal;HPM_P1;HPM_P2
2022/07/22 00:01:40;;;;;;;;;22.25;22.25;;;;;26.58;46.78;101489.50;4901394;28;45478;-57
2022/07/22 00:04:05;;;;;;;;;23.50;21.00;;;;;26.57;46.98;101494.94;4901107;29;45365;-54
2022/07/22 00:06:31;;;;;;;;;18.75;17.50;;;;;26.55;46.49;101487.94;4900974;29;46382;-58
2022/07/22 00:08:56;;;;;;;;;22.25;19.75;;;;;26.57;46.66;101494.94;4899430;29;46259;-56
2022/07/22 00:11:22;;;;;;;;;21.25;18.50;;;;;26.53;46.31;101489.84;4901177;29;45371;-57
2022/07/22 00:13:48;;;;;;;;;21.00;19.75;;;;;26.54;46.93;101488.88;4899764;28;45631;-56
2022/07/22 00:16:13;;;;;;;;;20.75;19.50;;;;;26.50;46.45;101490.09;4900912;28;45281;-56
2022/07/22 00:18:38;;;;;;;;;19.25;18.75;;;;;26.49;46.41;101482.19;4901219;28;45414;-57
2022/07/22 00:21:04;;;;;;;;;20.50;20.00;;;;;26.49;46.71;101490.16;4900779;29;45389;-56
2022/07/22 00:23:30;;;;;;;;;21.50;20.00;;;;;26.46;47.04;101483.28;4901086;28;45504;-57
2022/07/22 00:25:55;;;;;;;;;17.00;17.00;;;;;26.47;46.97;101487.63;4900533;28;45627;-54
2022/07/22 00:28:21;;;;;;;;;18.75;18.75;;;;;26.44;46.40;101474.56;4900607;28;45226;-54
2022/07/22 00:30:46;;;;;;;;;21.50;18.25;;;;;26.43;46.77;101482.66;4900636;29;45591;-55
2022/07/22 00:33:12;;;;;;;;;19.75;18.25;;;;;26.45;46.91;101478.91;4900969;28;45357;-56
2022/07/22 00:35:37;;;;;;;;;20.25;18.75;;;;;26.43;46.63;101472.00;4901134;28;45448;-56
2022/07/22 00:38:02;;;;;;;;;21.50;19.25;;;;;26.43;46.53;101480.81;4899126;28;47095;-58
2022/07/22 00:40:28;;;;;;;;;19.00;19.00;;;;;26.41;46.88;101473.94;4900682;28;45431;-56
2022/07/22 00:42:53;;;;;;;;;23.75;19.25;;;;;26.39;46.85;101476.69;4900706;28;45376;-56
2022/07/22 00:45:19;;;;;;;;;19.75;17.00;;;;;26.40;46.78;101473.09;4900333;29;46160;-57
2022/07/22 00:47:44;;;;;;;;;17.25;16.25;;;;;26.39;47.18;101472.22;4900121;29;45445;-54
2022/07/22 00:50:10;;;;;;;;;18.75;18.00;;;;;26.39;46.81;101460.75;4900866;28;45494;-57
2022/07/22 00:52:36;;;;;;;;;22.75;20.25;;;;;26.40;46.72;101462.47;4899397;29;45505;-57
2022/07/22 00:55:04;;;;;;;;;17.00;15.00;;;;;26.39;46.72;101456.28;4900116;29;46144;-55
2022/07/22 00:57:29;;;;;;;;;19.50;17.00;;;;;26.37;46.72;101454.69;4900304;29;45190;-55
2022/07/22 00:59:55;;;;;;;;;19.25;18.00;;;;;26.37;46.95;101452.03;4900007;28;45222;-56
2022/07/22 01:02:20;;;;;;;;;18.50;16.75;;;;;26.35;46.73;101452.13;4900580;29;45401;-55
2022/07/22 01:04:46;;;;;;;;;22.75;18.00;;;;;26.37;46.73;101457.34;4898818;29;47320;-57
2022/07/22 01:07:11;;;;;;;;;16.00;14.25;;;;;26.35;46.77;101449.47;4900771;29;45170;-56
2022/07/22 01:09:36;;;;;;;;;18.50;17.00;;;;;26.35;46.61;101454.78;4900793;28;45837;-57
2022/07/22 01:12:03;;;;;;;;;20.50;18.50;;;;;26.34;46.60;101454.91;4900290;29;45632;-56
2022/07/22 01:14:28;;;;;;;;;16.50;14.50;;;;;26.31;46.98;101445.34;4900004;28;46454;-56
2022/07/22 01:16:53;;;;;;;;;17.50;16.25;;;;;26.31;46.48;101448.00;4899840;29;45264;-55
2022/07/22 01:19:19;;;;;;;;;20.00;15.75;;;;;26.31;46.43;101453.31;4900146;29;45439;-57
2022/07/22 01:21:44;;;;;;;;;19.00;17.00;;;;;26.32;46.56;101448.84;4900057;29;45372;-55
2022/07/22 01:24:10;;;;;;;;;21.50;16.50;;;;;26.31;46.50;101441.81;4900060;29;45634;-56
2022/07/22 01:26:35;;;;;;;;;16.75;15.75;;;;;26.28;46.61;101442.91;4900033;28;45460;-55
2022/07/22 01:29:01;;;;;;;;;18.00;16.50;;;;;26.27;46.60;101443.84;4899637;29;45328;-56
2022/07/22 01:31:27;;;;;;;;;18.00;16.25;;;;;26.29;46.55;101447.25;4900175;29;45576;-56
2022/07/22 01:33:53;;;;;;;;;19.25;16.25;;;;;26.30;46.48;101448.09;4899579;28;47045;-56
2022/07/22 01:36:19;;;;;;;;;16.00;14.75;;;;;26.28;46.56;101445.56;4899836;29;45185;-56
2022/07/22 01:38:44;;;;;;;;;18.75;14.75;;;;;26.30;46.43;101450.75;4899478;29;45318;-56
2022/07/22 01:41:10;;;;;;;;;15.75;14.75;;;;;26.28;46.22;101442.06;4900385;28;45320;-57
2022/07/22 01:43:35;;;;;;;;;15.75;15.00;;;;;26.26;46.75;101443.97;4899508;28;46774;-57
2022/07/22 01:46:01;;;;;;;;;18.00;18.00;;;;;26.23;46.55;101440.56;4899328;29;45348;-58
2022/07/22 01:48:26;;;;;;;;;17.50;15.00;;;;;26.19;46.37;101441.72;4899749;29;45418;-57
2022/07/22 01:50:52;;;;;;;;;19.00;17.75;;;;;26.22;46.35;101446.00;4899687;29;45634;-58
2022/07/22 01:53:17;;;;;;;;;13.75;13.75;;;;;26.21;46.68;101447.78;4898195;29;45289;-58
2022/07/22 01:55:43;;;;;;;;;16.25;14.75;;;;;26.20;46.73;101443.44;4899287;29;45416;-58
2022/07/22 01:58:08;;;;;;;;;18.50;16.50;;;;;26.13;46.68;101436.03;4899753;28;45440;-56
2022/07/22 02:00:34;;;;;;;;;14.00;13.25;;;;;26.12;46.43;101432.50;4898594;29;45660;-55
2022/07/22 02:03:00;;;;;;;;;17.50;16.50;;;;;26.12;46.64;101437.81;4899105;29;45480;-56
2022/07/22 02:05:25;;;;;;;;;17.25;15.50;;;;;26.12;46.73;101429.84;4899412;29;45252;-58
2022/07/22 02:07:51;;;;;;;;;16.25;15.75;;;;;26.09;46.89;101427.38;4899164;29;45394;-56
2022/07/22 02:10:16;;;;;;;;;17.00;16.50;;;;;26.08;46.68;101423.00;4899686;29;45631;-57
2022/07/22 02:12:42;;;;;;;;;15.50;14.50;;;;;26.07;46.94;101424.81;4898189;29;45383;-57
2022/07/22 02:15:08;;;;;;;;;13.50;13.00;;;;;26.08;46.70;101423.00;4899622;29;45358;-54
2022/07/22 02:17:34;;;;;;;;;15.75;14.00;;;;;26.11;46.18;101433.47;4899432;29;45249;-56
2022/07/22 02:20:00;;;;;;;;;15.75;12.50;;;;;26.12;46.16;101429.84;4899355;29;45455;-56
2022/07/22 02:22:25;;;;;;;;;16.75;16.50;;;;;26.12;46.41;101423.69;4882062;29;45388;-55
2022/07/22 02:24:50;;;;;;;;;13.25;13.25;;;;;26.11;46.37;101425.50;4898955;29;45325;-56
2022/07/22 02:27:15;;;;;;;;;15.25;14.50;;;;;26.11;46.25;101422.84;4899363;29;45393;-55
2022/07/22 02:29:41;;;;;;;;;17.75;17.50;;;;;26.14;45.96;101429.72;4899741;29;45361;-57
2022/07/22 02:32:07;;;;;;;;;17.50;13.25;;;;;26.14;46.41;101435.91;4899413;29;45438;-59
2022/07/22 02:34:33;;;;;;;;;13.50;13.50;;;;;26.14;46.47;101429.72;4899050;28;45475;-57
2022/07/22 02:36:58;;;;;;;;;16.25;14.50;;;;;26.14;46.25;101433.25;4898893;29;45442;-56
2022/07/22 02:39:24;;;;;;;;;17.00;14.25;;;;;26.12;46.34;101432.50;4899239;28;45453;-57
2022/07/22 02:41:49;;;;;;;;;17.00;16.25;;;;;26.15;46.69;101432.28;4898537;29;46020;-57
2022/07/22 02:44:14;;;;;;;;;14.75;13.50;;;;;26.13;46.08;101436.88;4899010;29;45432;-56
2022/07/22 02:46:40;;;;;;;;;13.50;11.75;;;;;26.14;46.17;101427.06;4899464;29;45380;-57
2022/07/22 02:49:05;;;;;;;;;17.50;15.00;;;;;26.15;45.91;101431.44;4898709;29;45614;-55
2022/07/22 02:51:30;;;;;;;;;16.00;14.25;;;;;26.14;45.89;101433.25;4898764;29;46247;-54
2022/07/22 02:53:56;;;;;;;;;11.75;11.00;;;;;26.14;45.64;101430.59;4898487;29;45366;-56
2022/07/22 02:56:22;;;;;;;;;13.25;13.25;;;;;26.14;46.26;101429.72;4898894;29;45341;-57
2022/07/22 02:58:47;;;;;;;;;17.00;12.25;;;;;26.13;45.83;101426.25;4898764;29;45546;-57
2022/07/22 03:01:13;;;;;;;;;14.00;14.00;;;;;26.13;46.20;101422.75;4898492;29;46125;-58
2022/07/22 03:03:39;;;;;;;;;12.25;12.25;;;;;26.12;46.07;101424.53;4898996;28;45918;-57
2022/07/22 03:06:04;;;;;;;;;13.00;11.25;;;;;26.11;45.90;101417.53;4898707;29;45271;-56
2022/07/22 03:08:30;;;;;;;;;14.00;12.75;;;;;26.11;45.87;101420.19;4898976;29;45332;-56
2022/07/22 03:10:55;;;;;;;;;12.25;12.00;;;;;26.10;45.96;101418.47;4898252;29;46632;-57
2022/07/22 03:13:20;;;;;;;;;13.50;12.25;;;;;26.08;45.75;101415.03;4897309;29;45705;-58
2022/07/22 03:15:46;;;;;;;;;12.00;12.00;;;;;26.08;45.94;101409.72;4881491;29;45452;-56
2022/07/22 03:18:11;;;;;;;;;15.00;13.25;;;;;26.04;45.67;101409.09;4897892;29;45474;-58
2022/07/22 03:20:36;;;;;;;;;8.75;7.75;;;;;26.03;45.69;101406.56;4898841;29;46050;-57
2022/07/22 03:23:02;;;;;;;;;14.00;13.25;;;;;26.04;45.60;101413.56;4898384;29;45377;-58
2022/07/22 03:25:27;;;;;;;;;13.75;12.75;;;;;26.03;46.16;101411.88;4901788;28;45181;-59
2022/07/22 03:27:53;;;;;;;;;14.00;14.00;;;;;26.02;45.77;101405.69;4901626;29;45562;-58
2022/07/22 03:30:18;;;;;;;;;16.50;13.00;;;;;26.01;45.66;101412.00;4900335;29;47252;-56
2022/07/22 03:32:44;;;;;;;;;13.75;12.50;;;;;26.03;45.88;101409.22;4901524;29;45355;-55
2022/07/22 03:35:10;;;;;;;;;13.75;12.50;;;;;26.04;45.88;101413.56;4902005;29;45500;-54
2022/07/22 03:37:36;;;;;;;;;11.25;11.25;;;;;26.03;45.88;101406.56;4902096;29;45541;-58
2022/07/22 03:40:01;;;;;;;;;13.00;13.00;;;;;26.03;45.64;101410.06;4901267;29;45519;-58
2022/07/22 03:42:27;;;;;;;;;15.50;13.50;;;;;26.02;45.77;101410.16;4900113;28;45919;-57
2022/07/22 03:44:52;;;;;;;;;11.50;11.00;;;;;26.03;45.51;101410.06;4901514;29;45355;-57
2022/07/22 03:47:19;;;;;;;;;13.00;12.00;;;;;26.02;45.73;101412.81;4901740;28;45626;-59
2022/07/22 03:49:44;;;;;;;;;14.00;13.00;;;;;26.02;45.56;101410.16;4901018;29;46974;-59
2022/07/22 03:52:09;;;;;;;;;12.50;12.50;;;;;26.00;45.55;101407.63;4901697;29;45223;-58
2022/07/22 03:54:35;;;;;;;;;13.75;13.25;;;;;26.00;45.42;101412.94;4901584;29;45300;-58
2022/07/22 03:57:00;;;;;;;;;12.75;11.00;;;;;25.99;45.47;101410.38;4901396;29;45228;-58
2022/07/22 03:59:25;;;;;;;;;13.50;12.00;;;;;25.98;45.87;101404.22;4901075;29;46080;-58
2022/07/22 04:01:51;;;;;;;;;16.25;11.50;;;;;25.99;45.85;101405.94;4900957;28;45296;-57
2022/07/22 04:04:16;;;;;;;;;12.00;11.75;;;;;25.99;45.23;101405.06;4901428;28;45381;-56
2022/07/22 04:06:42;;;;;;;;;13.50;12.75;;;;;25.97;45.91;101407.84;4901529;28;45687;-56
2022/07/22 04:09:07;;;;;;;;;11.25;9.75;;;;;25.94;45.79;101408.03;4901482;29;46080;-58
2022/07/22 04:11:33;;;;;;;;;10.75;10.25;;;;;25.92;45.50;101405.50;4901076;29;45447;-56
2022/07/22 04:13:58;;;;;;;;;13.00;12.00;;;;;25.92;45.24;101408.16;4901031;29;45451;-55
2022/07/22 04:16:23;;;;;;;;;11.00;11.00;;;;;25.91;45.20;101408.25;4901495;28;45333;-56
2022/07/22 04:18:48;;;;;;;;;11.00;10.50;;;;;25.90;45.64;101409.22;4900756;29;45572;-58
2022/07/22 04:21:14;;;;;;;;;16.50;13.75;;;;;25.84;45.31;101407.84;4901054;29;45400;-53
2022/07/22 04:23:39;;;;;;;;;14.50;12.50;;;;;25.78;45.84;101410.91;4901202;29;45394;-54
2022/07/22 04:26:05;;;;;;;;;14.00;13.00;;;;;25.73;45.79;101405.09;4900933;29;45370;-57
2022/07/22 04:28:34;;;;;;;;;14.00;12.25;;;;;25.69;45.88;101400.94;4900831;29;46143;-56
2022/07/22 04:30:59;;;;;;;;;15.00;12.50;;;;;25.66;46.03;101398.47;4900558;28;45751;-55
2022/07/22 04:33:24;;;;;;;;;12.50;11.25;;;;;25.61;45.44;101397.00;4900946;29;45278;-59
2022/07/22 04:35:49;;;;;;;;;14.00;13.00;;;;;25.60;45.50;101392.66;4900423;29;45513;-58
2022/07/22 04:38:18;;;;;;;;;13.00;13.00;;;;;25.57;45.49;101394.69;4900633;29;45297;-57
2022/07/22 04:40:43;;;;;;;;;13.75;11.00;;;;;25.53;45.91;101394.00;4900254;28;45389;-58
2022/07/22 04:43:09;;;;;;;;;12.25;12.25;;;;;25.50;45.68;101391.59;4901123;29;45519;-55
2022/07/22 04:45:34;;;;;;;;;13.25;12.00;;;;;25.43;46.04;101388.50;4901024;28;45720;-56
2022/07/22 04:47:59;;;;;;;;;12.00;12.00;;;;;25.40;45.99;101387.81;4900064;28;46839;-54
2022/07/22 04:50:25;;;;;;;;;12.25;11.25;;;;;25.39;46.06;101394.91;4900458;28;45343;-55
2022/07/22 04:52:50;;;;;;;;;12.25;11.25;;;;;25.38;45.98;101387.91;4900463;29;45344;-56
2022/07/22 04:55:16;;;;;;;;;14.25;13.00;;;;;25.39;46.31;101391.44;4899421;28;45985;-54
2022/07/22 04:57:41;;;;;;;;;12.50;11.00;;;;;25.37;46.31;101388.03;4900535;29;45516;-56
2022/07/22 05:00:07;;;;;;;;;13.50;13.00;;;;;25.34;46.20;101388.22;4900165;28;45430;-56
2022/07/22 05:02:32;;;;;;;;;13.75;10.75;;;;;25.31;45.92;101368.91;4900384;29;45296;-55
2022/07/22 05:04:58;;;;;;;;;12.75;11.50;;;;;25.28;46.28;101371.78;4900450;29;45478;-56
2022/07/22 05:07:24;;;;;;;;;11.75;11.50;;;;;25.26;45.98;101373.69;4898945;28;47436;-57
2022/07/22 05:09:49;;;;;;;;;16.50;12.00;;;;;25.23;46.15;101373.03;4900156;29;45210;-58
2022/07/22 05:12:14;;;;;;;;;12.25;12.25;;;;;25.21;46.36;101378.44;4900241;28;45288;-58
2022/07/22 05:14:40;;;;;;;;;14.00;12.00;;;;;25.21;45.87;101386.38;4900748;29;45278;-57
2022/07/22 05:17:10;;;;;;;;;14.00;11.75;;;;;25.20;46.47;101382.03;4899720;29;47586;-53
2022/07/22 05:19:39;;;;;;;;;14.00;13.00;;;;;25.18;46.24;101373.34;4900097;29;45841;-53
2022/07/22 05:22:08;;;;;;;;;14.75;13.50;;;;;25.15;46.33;101374.38;4899796;29;45255;-54
2022/07/22 05:24:34;;;;;;;;;18.75;12.75;;;;;25.14;46.52;101382.47;4900173;29;45539;-53
2022/07/22 05:27:00;;;;;;;;;12.50;11.50;;;;;25.10;46.47;101381.81;4899604;29;45862;-52
2022/07/22 05:29:25;;;;;;;;;12.25;12.00;;;;;25.11;46.01;101372.91;4899879;29;45355;-52
2022/07/22 05:31:50;;;;;;;;;10.50;10.50;;;;;25.11;46.64;101369.38;4899930;29;45369;-52
2022/07/22 05:34:16;;;;;;;;;12.00;10.00;;;;;25.10;46.39;101376.50;4899678;29;45384;-54
2022/07/22 05:36:41;;;;;;;;;13.75;13.25;;;;;25.07;45.92;101370.56;4899847;28;45440;-52
2022/07/22 05:39:06;;;;;;;;;12.75;11.00;;;;;25.05;46.05;101373.31;4899481;29;45420;-52
2022/07/22 05:41:32;;;;;;;;;13.75;13.00;;;;;25.05;46.79;101380.41;4899777;29;45462;-56
2022/07/22 05:43:57;;;;;;;;;12.50;11.75;;;;;25.00;46.43;101373.59;4899778;29;45499;-53
2022/07/22 05:46:22;;;;;;;;;13.25;12.50;;;;;24.97;46.75;101373.81;4899591;29;45317;-53
2022/07/22 05:48:48;;;;;;;;;13.25;12.25;;;;;24.95;46.42;101372.22;4898731;29;45230;-53
2022/07/22 05:51:13;;;;;;;;;14.25;11.25;;;;;24.94;46.78;101371.38;4899582;29;45337;-57
2022/07/22 05:53:41;;;;;;;;;17.50;15.00;;;;;24.94;46.51;101374.03;4900112;29;45348;-58
2022/07/22 05:56:07;;;;;;;;;18.75;16.00;;;;;24.95;46.80;101364.25;4899159;29;45315;-54
2022/07/22 05:58:32;;;;;;;;;14.75;12.75;;;;;24.90;46.58;101364.56;4899542;29;45342;-56
2022/07/22 06:00:58;;;;;;;;;14.25;14.00;;;;;24.91;46.49;101370.72;4899528;29;46177;-56
2022/07/22 06:03:24;;;;;;;;;14.00;14.00;;;;;24.93;46.50;101364.38;4899823;29;45432;-56
2022/07/22 06:05:49;;;;;;;;;16.00;13.00;;;;;24.91;46.34;101353.00;4899457;29;46557;-55
2022/07/22 06:08:14;;;;;;;;;14.00;12.25;;;;;24.92;47.02;101352.06;4899111;29;45292;-52
2022/07/22 06:10:40;;;;;;;;;16.25;14.00;;;;;24.93;46.93;101359.06;4899913;29;45840;-52
2022/07/22 06:13:05;;;;;;;;;17.50;13.25;;;;;24.92;46.62;101351.19;4898315;29;45656;-54
2022/07/22 06:15:30;;;;;;;;;11.50;10.50;;;;;24.90;46.94;101359.25;4899119;29;45320;-52
2022/07/22 06:17:56;;;;;;;;;10.25;10.00;;;;;24.90;47.00;101369.03;4899114;29;45532;-51
2022/07/22 06:20:21;;;;;;;;;11.00;9.75;;;;;24.85;47.01;101370.16;4898970;29;51806;-52
2022/07/22 06:22:46;;;;;;;;;16.25;11.75;;;;;24.91;47.00;101379.53;4899365;29;45333;-51
2022/07/22 06:25:12;;;;;;;;;17.25;14.25;;;;;24.92;46.51;101367.09;4899105;29;46781;-51
2022/07/22 06:27:37;;;;;;;;;15.00;14.25;;;;;24.92;46.84;101356.50;4899034;29;45372;-54
2022/07/22 06:30:03;;;;;;;;;15.25;12.25;;;;;24.92;46.63;101365.31;4899150;29;45433;-53
2022/07/22 06:32:28;;;;;;;;;13.25;12.50;;;;;24.90;46.79;101361.91;4899361;28;45570;-53
2022/07/22 06:34:54;;;;;;;;;17.50;12.00;;;;;24.92;47.12;101361.78;4898644;29;51164;-54
2022/07/22 06:37:19;;;;;;;;;12.75;12.00;;;;;24.93;47.31;101368.81;4898945;29;45360;-53
2022/07/22 06:39:46;;;;;;;;;15.00;13.25;;;;;24.93;46.96;101363.50;4899206;29;45439;-54
2022/07/22 06:42:12;;;;;;;;;16.25;15.00;;;;;24.95;46.95;101367.78;4897996;29;45250;-53
2022/07/22 06:44:37;;;;;;;;;14.75;14.50;;;;;24.94;46.92;101365.19;4898808;29;45698;-54
2022/07/22 06:47:03;;;;;;;;;14.50;13.50;;;;;24.97;47.13;101359.72;4898475;29;45261;-56
2022/07/22 06:49:28;;;;;;;;;15.50;13.00;;;;;24.97;47.35;101359.72;4899120;29;45577;-55
2022/07/22 06:51:53;;;;;;;;;13.00;13.00;;;;;24.98;46.65;101369.38;4897609;28;45416;-55
2022/07/22 06:54:19;;;;;;;;;18.25;15.50;;;;;25.00;46.65;101373.59;4898798;29;46142;-54
2022/07/22 06:56:44;;;;;;;;;13.25;13.25;;;;;25.03;46.87;101374.34;4899016;29;45718;-55
2022/07/22 06:59:10;;;;;;;;;9.25;9.25;;;;;25.01;47.02;101377.97;4900510;29;45541;-55
2022/07/22 07:01:36;;;;;;;;;11.50;11.25;;;;;25.05;46.75;101380.41;4902301;29;45498;-57
2022/07/22 07:04:01;;;;;;;;;19.25;16.25;;;;;25.07;46.93;101376.72;4900474;29;47230;-55
2022/07/22 07:06:27;;;;;;;;;16.25;14.75;;;;;25.10;47.11;101383.59;4901923;29;45328;-56
2022/07/22 07:08:52;;;;;;;;;15.00;13.75;;;;;25.10;46.63;101380.94;4902115;29;45323;-55
2022/07/22 07:11:18;;;;;;;;;20.25;16.25;;;;;25.13;46.74;101380.75;4901991;29;45261;-56
2022/07/22 07:13:43;;;;;;;;;12.75;11.50;;;;;25.13;46.64;101370.16;4902115;29;45323;-55
2022/07/22 07:16:10;;;;;;;;;17.75;15.75;;;;;25.14;46.63;101366.53;4901595;29;45455;-53
2022/07/22 07:18:35;;;;;;;;;18.50;14.00;;;;;25.13;46.58;101359.53;4901974;29;45272;-56
2022/07/22 07:21:00;;;;;;;;;17.25;15.25;;;;;25.15;46.48;101352.31;4901688;28;45336;-56
2022/07/22 07:23:26;;;;;;;;;18.00;16.00;;;;;25.16;47.08;101349.56;4901736;29;46207;-56
2022/07/22 07:25:52;;;;;;;;;19.25;17.25;;;;;25.11;46.86;101345.53;4901763;29;45475;-56
2022/07/22 07:28:17;;;;;;;;;19.75;16.00;;;;;25.12;47.24;101363.13;4901492;29;45198;-56
2022/07/22 07:30:42;;;;;;;;;18.75;15.50;;;;;25.08;47.16;101356.34;4902243;29;45158;-56
2022/07/22 07:33:08;;;;;;;;;17.00;15.50;;;;;25.08;47.16;101356.34;4901292;28;46549;-55
2022/07/22 07:35:33;;;;;;;;;18.50;17.50;;;;;25.08;47.10;101357.19;4901500;28;45344;-56
2022/07/22 07:37:59;;;;;;;;;16.75;14.75;;;;;25.09;47.42;101355.38;4901405;29;45361;-55
2022/07/22 07:40:25;;;;;;;;;16.50;14.75;;;;;25.11;46.92;101353.47;4901927;28;45563;-55
2022/07/22 07:42:50;;;;;;;;;13.75;13.50;;;;;25.11;47.45;101354.34;4901481;29;46004;-56
2022/07/22 07:45:16;;;;;;;;;14.25;13.75;;;;;25.12;47.23;101358.69;4901525;29;45534;-54
2022/07/22 07:47:41;;;;;;;;;16.00;16.00;;;;;25.15;47.32;101363.78;4901717;29;45411;-56
2022/07/22 07:50:07;;;;;;;;;21.75;18.75;;;;;25.18;46.69;101370.69;4901242;29;45558;-55
2022/07/22 07:52:41;;;;;;;;;14.25;14.00;;;;;25.18;47.10;101362.75;4901331;29;45476;-56
2022/07/22 07:55:08;;;;;;;;;17.75;16.00;;;;;25.17;47.45;101374.31;4899853;29;46013;-56
2022/07/22 07:57:34;;;;;;;;;17.00;16.00;;;;;25.18;46.92;101381.31;4901461;29;45329;-57
2022/07/22 07:59:59;;;;;;;;;17.00;16.00;;;;;25.19;47.42;101369.72;4901216;28;45226;-54
2022/07/22 08:02:24;;;;;;;;;16.25;16.25;;;;;25.24;47.42;101366.78;4900894;28;50610;-56
2022/07/22 08:04:50;;;;;;;;;19.75;18.25;;;;;25.29;47.32;101372.63;4901104;29;45487;-55
2022/07/22 08:07:15;;;;;;;;;17.50;17.50;;;;;25.28;47.27;101369.13;4901434;29;45357;-56
2022/07/22 08:09:40;;;;;;;;;15.00;14.50;;;;;25.29;47.31;101359.34;4901066;28;45162;-57
2022/07/22 08:12:06;;;;;;;;;20.75;18.25;;;;;25.31;47.23;101368.91;4900223;29;46307;-55
2022/07/22 08:14:32;;;;;;;;;18.00;16.00;;;;;25.34;46.79;101361.69;4901082;28;45254;-56
2022/07/22 08:16:58;;;;;;;;;18.25;15.75;;;;;25.35;46.96;101361.59;4901038;29;45420;-57
2022/07/22 08:19:23;;;;;;;;;18.00;16.00;;;;;25.37;46.82;101361.50;4901215;28;45509;-56
2022/07/22 08:21:49;;;;;;;;;17.50;16.25;;;;;25.37;46.89;101354.38;4900928;28;46515;-54
2022/07/22 08:24:14;;;;;;;;;17.75;16.50;;;;;25.37;47.03;101345.56;4900968;29;45389;-57
2022/07/22 08:26:39;;;;;;;;;17.00;17.00;;;;;25.40;46.77;101345.38;4901090;29;45439;-56
2022/07/22 08:29:07;;;;;;;;;18.25;18.25;;;;;25.41;47.08;101347.09;4899614;28;45489;-56
2022/07/22 08:31:34;;;;;;;;;17.00;16.00;;;;;25.43;47.02;101345.16;4899539;29;47121;-56
2022/07/22 08:34:03;;;;;;;;;22.00;19.00;;;;;25.41;46.76;101339.16;4900348;29;45229;-56
2022/07/22 08:54:26;;;;;;;;;19.50;17.25;;;;;25.51;46.94;101321.63;5234288;23;46547;-51
2022/07/22 08:56:52;;;;;;;;;18.50;17.00;;;;;25.54;47.44;101301.97;4899796;29;45324;-51
2022/07/22 08:59:18;;;;;;;;;21.25;19.00;;;;;25.55;47.43;101296.56;4899957;28;45332;-51
2022/07/22 09:02:03;;;;;;;;;20.00;18.25;;;;;25.58;47.02;101287.53;4900523;29;45442;-53
2022/07/22 09:04:29;;;;;;;;;19.25;17.75;;;;;25.58;47.23;101268.94;4899780;29;45998;-54
2022/07/22 09:06:54;;;;;;;;;17.75;16.25;;;;;25.59;47.13;101250.28;4899497;29;45952;-49
2022/07/22 09:09:33;;;;;;;;;17.50;16.25;;;;;25.60;47.37;101240.50;4899754;29;45410;-50
2022/07/22 09:12:08;;;;;;;;;17.25;15.75;;;;;25.62;47.17;101259.81;4899829;29;45444;-51
2022/07/22 09:14:54;;;;;;;;;20.75;18.50;;;;;25.62;47.29;101279.25;4899595;29;46137;-54
2022/07/22 09:17:30;;;;;;;;;21.00;18.25;;;;;25.66;47.40;101295.81;4899604;29;45421;-49
2022/07/22 09:19:57;;;;;;;;;17.75;17.00;;;;;25.68;47.22;101298.34;4899519;29;45294;-52
2022/07/22 09:22:43;;;;;;;;;18.50;16.25;;;;;25.70;46.82;101312.38;4899642;29;45370;-49
2022/07/22 09:25:19;;;;;;;;;18.25;16.50;;;;;25.73;46.87;101323.63;4899418;29;45424;-50
2022/07/22 09:27:45;;;;;;;;;19.00;18.25;;;;;25.75;47.07;101336.78;4899810;29;45470;-51
2022/07/22 09:30:17;;;;;;;;;19.00;18.25;;;;;25.76;46.74;101331.38;4899435;29;45317;-49
2022/07/22 09:32:44;;;;;;;;;18.25;15.75;;;;;25.78;47.30;101328.59;4900184;29;45224;-49
2022/07/22 09:35:10;;;;;;;;;17.25;15.50;;;;;25.80;46.70;101324.03;4899619;28;46524;-53
2022/07/22 09:37:38;;;;;;;;;17.00;15.75;;;;;25.82;46.44;101323.94;4899713;29;45378;-53
2022/07/22 09:40:18;;;;;;;;;22.00;19.75;;;;;25.84;47.12;101312.25;4899518;29;45414;-53
2022/07/22 09:42:49;;;;;;;;;18.25;17.25;;;;;25.85;46.85;101291.84;4883055;29;45376;-51
2022/07/22 09:45:15;;;;;;;;;20.00;17.50;;;;;25.86;47.05;101293.56;4899567;29;45617;-51
2022/07/22 09:47:42;;;;;;;;;19.25;17.25;;;;;25.88;46.98;101305.75;4899683;29;45859;-51
2022/07/22 09:50:23;;;;;;;;;18.00;18.00;;;;;25.89;46.89;101303.97;4899525;29;45392;-50
2022/07/22 09:52:50;;;;;;;;;16.25;15.25;;;;;25.89;46.74;101299.50;4900210;29;45307;-54
2022/07/22 09:55:19;;;;;;;;;21.50;18.25;;;;;25.91;47.09;101308.19;4898313;29;47230;-50
2022/07/22 09:57:45;;;;;;;;;18.00;16.50;;;;;25.93;46.90;101319.56;4899608;29;45831;-51
2022/07/22 10:00:13;;;;;;;;;16.50;16.50;;;;;25.94;46.78;101307.13;4899342;29;45385;-50
2022/07/22 10:02:51;;;;;;;;;19.25;16.75;;;;;25.96;47.17;101309.69;4899655;29;45630;-52
2022/07/22 10:05:20;;;;;;;;;17.00;17.00;;;;;25.98;46.57;101303.31;4899330;29;46457;-51
2022/07/22 10:07:46;;;;;;;;;19.75;18.75;;;;;25.98;46.98;101297.13;4899765;29;45519;-51
2022/07/22 10:10:15;;;;;;;;;16.50;16.00;;;;;26.00;46.90;101301.41;4899330;29;45364;-52
2022/07/22 10:12:42;;;;;;;;;18.75;18.75;;;;;26.00;46.98;101298.75;4899796;28;45626;-53
2022/07/22 10:15:09;;;;;;;;;16.00;16.00;;;;;26.02;46.70;101293.31;4899030;29;45971;-53
2022/07/22 10:17:42;;;;;;;;;21.50;18.75;;;;;26.03;47.01;101289.69;4899230;29;45987;-52
2022/07/22 10:20:08;;;;;;;;;18.75;18.25;;;;;26.04;46.79;101291.38;4898984;29;45425;-51
2022/07/22 10:22:40;;;;;;;;;19.50;16.75;;;;;26.05;46.63;101298.41;4899381;29;45712;-49
2022/07/22 10:25:06;;;;;;;;;16.50;16.50;;;;;26.05;46.70;101293.94;4898779;29;46072;-50
2022/07/22 10:27:49;;;;;;;;;17.75;17.75;;;;;26.07;46.41;101292.00;4897905;29;46574;-51
2022/07/22 10:30:18;;;;;;;;;17.00;17.00;;;;;26.08;46.73;101283.09;4899026;29;45305;-48
2022/07/22 10:32:44;;;;;;;;;20.75;18.00;;;;;26.08;46.60;101268.94;4899364;29;45599;-52
2022/07/22 10:35:10;;;;;;;;;18.00;16.75;;;;;26.10;46.31;101275.03;4901581;29;46133;-53
2022/07/22 10:37:35;;;;;;;;;21.33;18.00;;;;;26.09;46.87;101267.97;4902559;29;45301;-51
2022/07/22 10:40:11;;;;;;;;;18.25;16.25;;;;;26.10;46.71;101269.72;4902234;29;45539;-53
2022/07/22 10:43:08;;;;;;;;;18.50;17.50;;;;;26.10;46.32;101252.94;4902626;28;45411;-52
2022/07/22 10:45:57;;;;;;;;;17.00;17.00;;;;;26.10;46.57;101237.00;4902444;28;45468;-51
2022/07/22 10:48:29;;;;;;;;;21.00;17.50;;;;;26.10;46.36;101195.34;4902481;29;45392;-47
2022/07/22 10:51:06;;;;;;;;;21.00;19.50;;;;;26.11;47.13;101180.25;4902088;29;45355;-52
2022/07/22 10:53:57;;;;;;;;;16.75;16.75;;;;;26.10;46.60;101168.78;4902503;29;46044;-51
2022/07/22 10:56:35;;;;;;;;;19.75;19.00;;;;;26.10;47.37;101170.59;4901996;29;45993;-48
2022/07/22 10:59:14;;;;;;;;;17.75;16.75;;;;;26.10;47.61;101187.38;4901714;29;45693;-49
2022/07/22 11:01:46;;;;;;;;;21.00;18.75;;;;;26.10;47.37;101182.06;4900807;29;45507;-51
2022/07/22 11:04:23;;;;;;;;;23.00;23.00;;;;;26.11;47.41;101172.28;4902117;28;45769;-53
2022/07/22 11:06:54;;;;;;;;;21.00;20.25;;;;;26.12;47.15;101179.31;4902256;29;46227;-49
2022/07/22 11:09:21;;;;;;;;;26.25;22.25;;;;;26.12;47.78;101180.13;4902198;28;45914;-50
2022/07/22 11:11:49;;;;;;;;;23.50;21.25;;;;;26.13;48.17;101167.72;4902432;28;45452;-50
2022/07/22 11:14:16;;;;;;;;;22.50;21.25;;;;;26.12;48.47;101142.94;4901518;29;45329;-53
2022/07/22 11:16:43;;;;;;;;;23.75;21.00;;;;;26.12;48.25;101132.31;4901249;29;46021;-52
2022/07/22 11:19:08;;;;;;;;;25.50;22.00;;;;;26.13;47.93;101126.06;4901239;28;45997;-48
2022/07/22 11:21:35;;;;;;;;;25.25;22.75;;;;;26.13;48.47;101115.44;4901508;29;45445;-53
2022/07/22 11:24:02;;;;;;;;;22.75;22.00;;;;;26.13;48.70;101125.22;4901335;29;45518;-47
2022/07/22 11:26:42;;;;;;;;;23.25;21.25;;;;;26.13;48.63;101131.38;4901197;29;48241;-45